<?xml version="1.0" encoding="UTF-8" standalone="no" ?>
<gpx xmlns="http://www.topografix.com/GPX/1/1" xmlns:xsi="http://www.w3.org/2001/XMLSchema-instance" xsi:schemaLocation="http://www.topografix.com/GPX/1/1 http://www.topografix.com/GPX/1/1/gpx.xsd" version="1.1" creator="VisuGPX - https://www.visugpx.com">
  <metadata>
    <name>2019-07-07 16:45:52</name>
  </metadata>
  <trk>
    <name><![CDATA[2019-07-07 16:45:52]]></name>
    <trkseg>
      <trkpt lat="50.44181" lon="6.03861">
        <ele>359.19</ele>
        <time>2019-07-07T06:50:57Z</time>
      </trkpt>
      <trkpt lat="50.44192" lon="6.03831">
        <ele>362.55</ele>
        <time>2019-07-07T06:51:07Z</time>
      </trkpt>
      <trkpt lat="50.44207" lon="6.03812">
        <ele>365.44</ele>
        <time>2019-07-07T06:51:17Z</time>
      </trkpt>
      <trkpt lat="50.4423" lon="6.03801">
        <ele>368.32</ele>
        <time>2019-07-07T06:51:28Z</time>
      </trkpt>
      <trkpt lat="50.44267" lon="6.03819">
        <ele>371.21</ele>
        <time>2019-07-07T06:51:44Z</time>
      </trkpt>
      <trkpt lat="50.44299" lon="6.0382">
        <ele>374.57</ele>
        <time>2019-07-07T06:51:57Z</time>
      </trkpt>
      <trkpt lat="50.44322" lon="6.03817">
        <ele>377.94</ele>
        <time>2019-07-07T06:52:08Z</time>
      </trkpt>
      <trkpt lat="50.44334" lon="6.03812">
        <ele>380.82</ele>
        <time>2019-07-07T06:52:17Z</time>
      </trkpt>
      <trkpt lat="50.44352" lon="6.03803">
        <ele>384.18</ele>
        <time>2019-07-07T06:52:27Z</time>
      </trkpt>
      <trkpt lat="50.44373" lon="6.03786">
        <ele>387.55</ele>
        <time>2019-07-07T06:52:38Z</time>
      </trkpt>
      <trkpt lat="50.44389" lon="6.03765">
        <ele>390.91</ele>
        <time>2019-07-07T06:52:49Z</time>
      </trkpt>
      <trkpt lat="50.44403" lon="6.03749">
        <ele>394.28</ele>
        <time>2019-07-07T06:53:01Z</time>
      </trkpt>
      <trkpt lat="50.44409" lon="6.03744">
        <ele>395.24</ele>
        <time>2019-07-07T06:53:06Z</time>
      </trkpt>
      <trkpt lat="50.44422" lon="6.03738">
        <ele>397.64</ele>
        <time>2019-07-07T06:53:13Z</time>
      </trkpt>
      <trkpt lat="50.44424" lon="6.03737">
        <ele>397.64</ele>
        <time>2019-07-07T06:53:14Z</time>
      </trkpt>
      <trkpt lat="50.44426" lon="6.03736">
        <ele>398.12</ele>
        <time>2019-07-07T06:53:15Z</time>
      </trkpt>
      <trkpt lat="50.44428" lon="6.03735">
        <ele>398.12</ele>
        <time>2019-07-07T06:53:16Z</time>
      </trkpt>
      <trkpt lat="50.44429" lon="6.03735">
        <ele>398.6</ele>
        <time>2019-07-07T06:53:17Z</time>
      </trkpt>
      <trkpt lat="50.44437" lon="6.03733">
        <ele>400.53</ele>
        <time>2019-07-07T06:53:22Z</time>
      </trkpt>
      <trkpt lat="50.44448" lon="6.03733">
        <ele>402.45</ele>
        <time>2019-07-07T06:53:28Z</time>
      </trkpt>
      <trkpt lat="50.44449" lon="6.03733">
        <ele>402.93</ele>
        <time>2019-07-07T06:53:29Z</time>
      </trkpt>
      <trkpt lat="50.44451" lon="6.03734">
        <ele>402.93</ele>
        <time>2019-07-07T06:53:30Z</time>
      </trkpt>
      <trkpt lat="50.44466" lon="6.03743">
        <ele>406.29</ele>
        <time>2019-07-07T06:53:38Z</time>
      </trkpt>
      <trkpt lat="50.44487" lon="6.03747">
        <ele>410.14</ele>
        <time>2019-07-07T06:53:50Z</time>
      </trkpt>
      <trkpt lat="50.44489" lon="6.03747">
        <ele>410.14</ele>
        <time>2019-07-07T06:53:51Z</time>
      </trkpt>
      <trkpt lat="50.44491" lon="6.03746">
        <ele>410.62</ele>
        <time>2019-07-07T06:53:52Z</time>
      </trkpt>
      <trkpt lat="50.44493" lon="6.03746">
        <ele>410.62</ele>
        <time>2019-07-07T06:53:53Z</time>
      </trkpt>
      <trkpt lat="50.44509" lon="6.03738">
        <ele>414.47</ele>
        <time>2019-07-07T06:54:03Z</time>
      </trkpt>
      <trkpt lat="50.44523" lon="6.03717">
        <ele>416.87</ele>
        <time>2019-07-07T06:54:13Z</time>
      </trkpt>
      <trkpt lat="50.4453" lon="6.03692">
        <ele>420.23</ele>
        <time>2019-07-07T06:54:23Z</time>
      </trkpt>
      <trkpt lat="50.44532" lon="6.03651">
        <ele>424.08</ele>
        <time>2019-07-07T06:54:37Z</time>
      </trkpt>
      <trkpt lat="50.44528" lon="6.03624">
        <ele>427.44</ele>
        <time>2019-07-07T06:54:47Z</time>
      </trkpt>
      <trkpt lat="50.44531" lon="6.03593">
        <ele>430.81</ele>
        <time>2019-07-07T06:54:58Z</time>
      </trkpt>
      <trkpt lat="50.44537" lon="6.03571">
        <ele>434.17</ele>
        <time>2019-07-07T06:55:07Z</time>
      </trkpt>
      <trkpt lat="50.44544" lon="6.03547">
        <ele>437.54</ele>
        <time>2019-07-07T06:55:17Z</time>
      </trkpt>
      <trkpt lat="50.44551" lon="6.03523">
        <ele>440.42</ele>
        <time>2019-07-07T06:55:27Z</time>
      </trkpt>
      <trkpt lat="50.44559" lon="6.03499">
        <ele>443.79</ele>
        <time>2019-07-07T06:55:38Z</time>
      </trkpt>
      <trkpt lat="50.44569" lon="6.03481">
        <ele>446.67</ele>
        <time>2019-07-07T06:55:47Z</time>
      </trkpt>
      <trkpt lat="50.44581" lon="6.03464">
        <ele>450.03</ele>
        <time>2019-07-07T06:55:56Z</time>
      </trkpt>
      <trkpt lat="50.44599" lon="6.03444">
        <ele>453.4</ele>
        <time>2019-07-07T06:56:09Z</time>
      </trkpt>
      <trkpt lat="50.44616" lon="6.0342">
        <ele>457.24</ele>
        <time>2019-07-07T06:56:22Z</time>
      </trkpt>
      <trkpt lat="50.44629" lon="6.03388">
        <ele>460.61</ele>
        <time>2019-07-07T06:56:35Z</time>
      </trkpt>
      <trkpt lat="50.44633" lon="6.03355">
        <ele>463.97</ele>
        <time>2019-07-07T06:56:47Z</time>
      </trkpt>
      <trkpt lat="50.44634" lon="6.03308">
        <ele>465.42</ele>
        <time>2019-07-07T06:57:03Z</time>
      </trkpt>
      <trkpt lat="50.44638" lon="6.03243">
        <ele>466.38</ele>
        <time>2019-07-07T06:57:20Z</time>
      </trkpt>
      <trkpt lat="50.4464" lon="6.03192">
        <ele>469.74</ele>
        <time>2019-07-07T06:57:35Z</time>
      </trkpt>
      <trkpt lat="50.44645" lon="6.03165">
        <ele>472.63</ele>
        <time>2019-07-07T06:57:44Z</time>
      </trkpt>
      <trkpt lat="50.4465" lon="6.03136">
        <ele>475.99</ele>
        <time>2019-07-07T06:57:53Z</time>
      </trkpt>
      <trkpt lat="50.44653" lon="6.03109">
        <ele>478.87</ele>
        <time>2019-07-07T06:58:02Z</time>
      </trkpt>
      <trkpt lat="50.44657" lon="6.0308">
        <ele>482.24</ele>
        <time>2019-07-07T06:58:12Z</time>
      </trkpt>
      <trkpt lat="50.44659" lon="6.03072">
        <ele>482.72</ele>
        <time>2019-07-07T06:58:15Z</time>
      </trkpt>
      <trkpt lat="50.44659" lon="6.03069">
        <ele>483.2</ele>
        <time>2019-07-07T06:58:16Z</time>
      </trkpt>
      <trkpt lat="50.44659" lon="6.03066">
        <ele>483.68</ele>
        <time>2019-07-07T06:58:17Z</time>
      </trkpt>
      <trkpt lat="50.44659" lon="6.03063">
        <ele>483.68</ele>
        <time>2019-07-07T06:58:18Z</time>
      </trkpt>
      <trkpt lat="50.4466" lon="6.03061">
        <ele>484.16</ele>
        <time>2019-07-07T06:58:19Z</time>
      </trkpt>
      <trkpt lat="50.44661" lon="6.03021">
        <ele>487.05</ele>
        <time>2019-07-07T06:58:33Z</time>
      </trkpt>
      <trkpt lat="50.4466" lon="6.02985">
        <ele>490.41</ele>
        <time>2019-07-07T06:58:45Z</time>
      </trkpt>
      <trkpt lat="50.44658" lon="6.02953">
        <ele>493.29</ele>
        <time>2019-07-07T06:58:55Z</time>
      </trkpt>
      <trkpt lat="50.44655" lon="6.02925">
        <ele>496.18</ele>
        <time>2019-07-07T06:59:05Z</time>
      </trkpt>
    </trkseg>
  </trk>
</gpx>